createdAt,value
2018-01-11T00:01:46.389Z,23.62
2018-01-11T00:04:15.434Z,25.80
2018-01-11T00:06:43.815Z,25.55
2018-01-11T00:09:13.788Z,25.88
2018-01-11T00:11:42.136Z,25.35
2018-01-11T00:14:11.442Z,26.80
2018-01-11T00:16:41.455Z,24.67
2018-01-11T00:19:10.654Z,26.50
2018-01-11T00:21:39.410Z,27.98
2018-01-11T00:24:08.276Z,24.33
2018-01-11T00:26:37.736Z,23.15
2018-01-11T00:29:07.015Z,23.65
2018-01-11T00:31:35.714Z,23.95
2018-01-11T00:34:04.056Z,24.80
2018-01-11T00:36:32.600Z,23.52
2018-01-11T00:39:02.910Z,20.48
2018-01-11T00:41:31.968Z,22.48
2018-01-11T00:44:01.519Z,23.17
2018-01-11T00:46:29.693Z,20.12
2018-01-11T00:48:57.958Z,24.00
2018-01-11T00:51:26.639Z,23.12
2018-01-11T00:53:55.922Z,22.17
2018-01-11T00:56:24.870Z,19.20
2018-01-11T00:58:52.901Z,19.00
2018-01-11T01:01:21.845Z,19.20
2018-01-11T01:03:50.909Z,20.25
2018-01-11T01:06:19.969Z,20.10
2018-01-11T01:08:49.484Z,19.52
2018-01-11T01:11:18.298Z,21.50
2018-01-11T01:13:46.732Z,20.65
2018-01-11T01:16:14.956Z,21.58
2018-01-11T01:18:43.808Z,20.90
2018-01-11T01:21:12.050Z,21.67
2018-01-11T01:23:41.325Z,22.10
2018-01-11T01:26:10.177Z,23.17
2018-01-11T01:28:38.957Z,23.67
2018-01-11T01:31:07.737Z,24.05
2018-01-11T01:33:36.630Z,25.98
2018-01-11T01:36:05.610Z,28.02
2018-01-11T01:38:35.191Z,26.70
2018-01-11T01:41:04.558Z,29.33
2018-01-11T01:43:33.619Z,28.83
2018-01-11T01:46:02.212Z,29.23
2018-01-11T01:48:30.946Z,30.90
2018-01-11T01:51:01.133Z,29.65
2018-01-11T01:53:29.812Z,26.90
2018-01-11T01:55:59.382Z,27.42
2018-01-11T01:58:28.826Z,27.67
2018-01-11T02:00:57.497Z,28.77
2018-01-11T02:03:26.389Z,26.40
2018-01-11T02:05:54.990Z,27.98
2018-01-11T02:08:24.425Z,28.85
2018-01-11T02:10:53.025Z,29.27
2018-01-11T02:13:22.240Z,29.02
2018-01-11T02:15:50.469Z,27.60
2018-01-11T02:18:19.494Z,28.00
2018-01-11T02:20:47.902Z,26.10
2018-01-11T02:23:17.444Z,25.37
2018-01-11T02:25:46.132Z,26.73
2018-01-11T02:28:15.133Z,25.37
2018-01-11T02:30:43.754Z,29.85
2018-01-11T02:33:12.425Z,28.12
2018-01-11T02:35:41.948Z,28.65
2018-01-11T02:38:10.692Z,29.52
2018-01-11T02:40:40.275Z,29.87
2018-01-11T02:43:08.736Z,30.73
2018-01-11T02:45:37.446Z,29.12
2018-01-11T02:48:06.993Z,29.65
2018-01-11T02:50:35.754Z,27.35
2018-01-11T02:53:04.698Z,27.65
2018-01-11T02:55:34.629Z,28.17
2018-01-11T02:58:03.371Z,27.70
2018-01-11T03:00:32.308Z,29.42
2018-01-11T03:03:01.072Z,31.02
2018-01-11T03:05:30.887Z,29.35
2018-01-11T03:07:59.567Z,27.83
2018-01-11T03:10:28.892Z,25.83
2018-01-11T03:12:58.094Z,24.87
2018-01-11T03:15:26.598Z,24.73
2018-01-11T03:17:55.962Z,26.17
2018-01-11T03:20:25.206Z,30.70
2018-01-11T03:22:54.166Z,29.20
2018-01-11T03:25:23.146Z,28.95
2018-01-11T03:27:52.294Z,31.17
2018-01-11T03:30:21.703Z,29.23
2018-01-11T03:32:52.393Z,29.50
2018-01-11T03:35:21.055Z,31.08
2018-01-11T03:37:49.368Z,30.55
2018-01-11T03:40:18.934Z,29.37
2018-01-11T03:42:47.174Z,29.35
2018-01-11T03:45:15.436Z,28.95
2018-01-11T03:47:43.676Z,37.10
2018-01-11T03:50:13.365Z,33.95
2018-01-11T03:52:42.934Z,40.00
2018-01-11T03:55:11.345Z,37.20
2018-01-11T03:57:41.252Z,37.75
2018-01-11T04:00:10.008Z,34.00
2018-01-11T04:02:38.255Z,32.75
2018-01-11T04:05:07.958Z,33.28
2018-01-11T04:07:36.534Z,31.55
2018-01-11T04:10:05.457Z,33.28
2018-01-11T04:12:34.782Z,33.33
2018-01-11T04:15:03.007Z,33.03
2018-01-11T04:17:31.745Z,31.83
2018-01-11T04:20:00.050Z,28.60
2018-01-11T04:22:28.314Z,30.42
2018-01-11T04:24:56.707Z,29.35
2018-01-11T04:27:26.346Z,30.10
2018-01-11T04:29:55.157Z,28.52
2018-01-11T04:32:23.967Z,25.17
2018-01-11T04:34:52.693Z,27.15
2018-01-11T04:37:22.111Z,27.85
2018-01-11T04:39:50.354Z,28.23
2018-01-11T04:42:19.040Z,25.70
2018-01-11T04:44:48.583Z,24.33
2018-01-11T04:47:16.724Z,26.92
2018-01-11T04:49:45.459Z,24.75
2018-01-11T04:52:15.012Z,27.30
2018-01-11T04:54:44.364Z,27.27
2018-01-11T04:57:12.587Z,30.48
2018-01-11T04:59:41.644Z,27.52
2018-01-11T05:02:10.144Z,27.58
2018-01-11T05:04:39.049Z,25.92
2018-01-11T05:07:08.097Z,27.67
2018-01-11T05:09:37.450Z,27.17
2018-01-11T05:12:07.497Z,27.45
2018-01-11T05:14:37.224Z,24.37
2018-01-11T05:17:05.858Z,25.67
2018-01-11T05:19:34.489Z,24.67
2018-01-11T05:22:04.480Z,26.20
2018-01-11T05:24:33.204Z,27.37
2018-01-11T05:27:03.081Z,28.30
2018-01-11T05:29:32.405Z,31.70
2018-01-11T05:32:02.870Z,27.60
2018-01-11T05:34:31.882Z,34.67
2018-01-11T05:37:01.065Z,45.72
2018-01-11T05:39:29.918Z,30.05
2018-01-11T05:41:58.917Z,28.35
2018-01-11T05:44:28.188Z,27.55
2018-01-11T05:46:56.749Z,28.90
2018-01-11T05:49:25.635Z,27.10
2018-01-11T05:51:55.027Z,26.80
2018-01-11T05:54:23.353Z,29.67
2018-01-11T05:56:52.168Z,28.23
2018-01-11T05:59:20.939Z,28.52
2018-01-11T06:01:50.402Z,32.17
2018-01-11T06:04:18.989Z,31.87
2018-01-11T06:06:47.889Z,29.02
2018-01-11T06:09:17.683Z,31.27
2018-01-11T06:11:45.885Z,32.85
2018-01-11T06:14:15.785Z,30.33
2018-01-11T06:16:44.432Z,28.35
2018-01-11T06:19:13.655Z,28.30
2018-01-11T06:21:41.859Z,27.42
2018-01-11T06:24:11.392Z,26.58
2018-01-11T06:26:40.339Z,27.48
2018-01-11T06:29:08.749Z,25.92
2018-01-11T06:31:37.650Z,26.40
2018-01-11T06:34:06.693Z,25.60
2018-01-11T06:36:36.343Z,26.27
2018-01-11T06:39:05.104Z,25.27
2018-01-11T06:41:35.021Z,24.90
2018-01-11T06:44:03.721Z,26.80
2018-01-11T06:46:32.635Z,24.65
2018-01-11T06:49:01.979Z,23.77
2018-01-11T06:51:30.608Z,22.65
2018-01-11T06:53:59.940Z,23.27
2018-01-11T06:56:28.013Z,22.73
2018-01-11T06:58:56.301Z,22.48
2018-01-11T07:01:25.390Z,23.58
2018-01-11T07:03:55.114Z,23.50
2018-01-11T07:06:24.217Z,25.00
2018-01-11T07:08:54.713Z,23.25
2018-01-11T07:11:23.207Z,22.83
2018-01-11T07:13:52.252Z,21.75
2018-01-11T07:16:21.413Z,21.10
2018-01-11T07:18:50.065Z,21.65
2018-01-11T07:21:18.245Z,22.48
2018-01-11T07:23:46.924Z,24.08
2018-01-11T07:26:15.579Z,23.27
2018-01-11T07:28:44.239Z,23.75
2018-01-11T07:31:12.962Z,23.90
2018-01-11T07:33:41.652Z,21.35
2018-01-11T07:36:10.596Z,24.52
2018-01-11T07:38:39.936Z,23.62
2018-01-11T07:41:09.336Z,23.17
2018-01-11T07:43:37.855Z,22.30
2018-01-11T07:46:06.760Z,21.00
2018-01-11T07:48:34.894Z,20.52
2018-01-11T07:51:04.574Z,22.10
2018-01-11T07:53:33.381Z,21.15
2018-01-11T07:56:02.480Z,20.83
2018-01-11T07:58:32.220Z,22.08
2018-01-11T08:01:01.798Z,20.23
2018-01-11T08:03:30.484Z,21.65
2018-01-11T08:05:59.096Z,20.45
2018-01-11T08:08:28.350Z,18.00
2018-01-11T08:10:58.140Z,18.90
2018-01-11T08:13:26.962Z,19.23
2018-01-11T08:15:56.870Z,19.75
2018-01-11T08:18:26.882Z,20.62
2018-01-11T08:20:55.876Z,20.00
2018-01-11T08:23:25.344Z,19.55
2018-01-11T08:25:54.448Z,19.67
2018-01-11T08:28:22.919Z,20.15
2018-01-11T08:30:51.896Z,19.48
2018-01-11T08:33:21.217Z,20.20
2018-01-11T08:35:50.068Z,21.05
2018-01-11T08:38:20.077Z,22.23
2018-01-11T08:40:48.486Z,20.10
2018-01-11T08:43:18.019Z,18.98
2018-01-11T08:45:47.710Z,18.45
2018-01-11T08:48:16.603Z,20.88
2018-01-11T08:50:45.766Z,18.92
2018-01-11T08:53:14.828Z,18.65
2018-01-11T08:55:43.932Z,22.50
2018-01-11T08:58:12.684Z,20.10
2018-01-11T09:00:41.868Z,20.12
2018-01-11T09:03:10.802Z,21.30
2018-01-11T09:05:39.774Z,21.62
2018-01-11T09:08:09.416Z,20.57
2018-01-11T09:10:38.410Z,19.40
2018-01-11T09:13:07.113Z,19.50
2018-01-11T09:15:36.836Z,20.90
2018-01-11T09:18:05.115Z,18.03
2018-01-11T09:20:34.711Z,17.80
2018-01-11T09:23:03.587Z,16.60
2018-01-11T09:25:32.368Z,17.57
2018-01-11T09:28:01.523Z,18.70
2018-01-11T09:30:30.610Z,23.50
2018-01-11T09:33:00.216Z,19.37
2018-01-11T09:35:29.488Z,19.10
2018-01-11T09:37:57.991Z,16.67
2018-01-11T09:40:26.271Z,17.53
2018-01-11T09:42:55.732Z,18.30
2018-01-11T09:45:23.925Z,17.90
2018-01-11T09:47:52.861Z,18.73
2018-01-11T09:50:21.052Z,20.07
2018-01-11T09:52:49.574Z,18.70
2018-01-11T09:55:19.290Z,17.67
2018-01-11T09:57:48.939Z,17.90
2018-01-11T10:00:18.190Z,19.10
2018-01-11T10:02:50.258Z,19.27
2018-01-11T10:05:19.640Z,21.57
2018-01-11T10:07:49.391Z,20.67
2018-01-11T10:10:19.045Z,18.37
2018-01-11T10:12:48.082Z,20.10
2018-01-11T10:15:17.473Z,19.97
2018-01-11T10:17:46.457Z,24.20
2018-01-11T10:20:15.178Z,20.10
2018-01-11T10:22:43.853Z,20.47
2018-01-11T10:25:13.740Z,22.93
2018-01-11T10:27:43.297Z,19.60
2018-01-11T10:30:12.346Z,18.87
2018-01-11T10:32:41.846Z,19.93
2018-01-11T10:35:17.005Z,20.27
2018-01-11T10:37:46.684Z,18.37
2018-01-11T10:40:15.881Z,18.93
2018-01-11T10:42:45.384Z,17.73
2018-01-11T10:45:13.562Z,19.07
2018-01-11T10:47:43.842Z,21.13
2018-01-11T10:50:12.524Z,19.07
2018-01-11T10:52:41.444Z,20.70
2018-01-11T10:55:10.640Z,19.57
2018-01-11T10:57:39.431Z,20.70
2018-01-11T11:00:08.528Z,20.07
2018-01-11T11:02:39.100Z,19.50
2018-01-11T11:05:08.002Z,21.87
2018-01-11T11:07:37.648Z,21.60
2018-01-11T11:10:06.960Z,22.03
2018-01-11T11:12:36.096Z,20.93
2018-01-11T11:15:04.827Z,20.73
2018-01-11T11:17:34.623Z,23.00
2018-01-11T11:20:02.896Z,21.30
2018-01-11T11:22:32.467Z,21.13
2018-01-11T11:25:01.698Z,22.30
2018-01-11T11:27:30.446Z,23.60
2018-01-11T11:29:59.427Z,21.63
2018-01-11T11:32:28.801Z,20.60
2018-01-11T11:34:58.155Z,23.00
2018-01-11T11:37:27.458Z,21.97
2018-01-11T11:39:56.952Z,22.23
2018-01-11T11:42:25.403Z,22.97
2018-01-11T11:44:54.640Z,23.97
2018-01-11T11:47:23.675Z,21.57
2018-01-11T11:49:52.316Z,20.73
2018-01-11T11:52:22.089Z,22.67
2018-01-11T11:54:50.299Z,22.80
2018-01-11T11:57:20.060Z,21.10
2018-01-11T11:59:50.088Z,22.03
2018-01-11T12:02:18.763Z,20.40
2018-01-11T12:04:48.214Z,19.87
2018-01-11T12:07:16.976Z,20.50
2018-01-11T12:09:45.810Z,19.00
2018-01-11T12:12:15.053Z,26.90
2018-01-11T12:14:43.469Z,19.03
2018-01-11T12:17:12.072Z,20.83
2018-01-11T12:19:41.412Z,21.07
2018-01-11T12:22:09.841Z,21.60
2018-01-11T12:24:38.991Z,23.30
2018-01-11T12:27:07.542Z,23.57
2018-01-11T12:29:36.494Z,21.37
2018-01-11T12:32:05.387Z,21.10
2018-01-11T12:34:34.472Z,21.40
2018-01-11T12:37:03.048Z,23.30
2018-01-11T12:39:31.460Z,20.33
2018-01-11T12:42:00.668Z,19.33
2018-01-11T12:44:29.622Z,21.90
2018-01-11T12:46:58.725Z,19.90
2018-01-11T12:49:27.605Z,19.93
2018-01-11T12:51:55.901Z,21.30
2018-01-11T12:54:24.272Z,20.63
2018-01-11T12:56:54.420Z,19.73
2018-01-11T12:59:23.757Z,20.20
2018-01-11T13:01:52.281Z,19.77
2018-01-11T13:04:21.095Z,18.50
2018-01-11T13:06:49.764Z,16.83
2018-01-11T13:09:18.494Z,18.70
2018-01-11T13:11:47.183Z,17.50
2018-01-11T13:14:16.549Z,17.00
2018-01-11T13:16:44.739Z,18.40
2018-01-11T13:19:13.766Z,18.73
2018-01-11T13:21:41.982Z,18.70
2018-01-11T13:24:11.777Z,18.97
2018-01-11T13:26:41.190Z,17.90
2018-01-11T13:29:10.454Z,18.20
2018-01-11T13:31:39.043Z,18.03
2018-01-11T13:34:08.168Z,18.23
2018-01-11T13:36:37.336Z,18.00
2018-01-11T13:39:06.995Z,17.93
2018-01-11T13:41:35.995Z,17.10
2018-01-11T13:44:04.559Z,17.33
2018-01-11T13:46:33.571Z,16.70
2018-01-11T13:49:02.991Z,18.40
2018-01-11T13:51:33.552Z,16.77
2018-01-11T13:54:02.424Z,18.53
2018-01-11T13:56:32.066Z,19.27
2018-01-11T13:59:01.335Z,17.97
2018-01-11T14:01:31.389Z,17.10
2018-01-11T14:03:59.647Z,17.40
2018-01-11T14:06:29.834Z,17.20
2018-01-11T14:08:58.027Z,17.57
2018-01-11T14:11:27.008Z,18.30
2018-01-11T14:13:56.307Z,18.07
2018-01-11T14:16:25.864Z,16.13
2018-01-11T14:18:56.518Z,16.73
2018-01-11T14:21:26.562Z,16.50
2018-01-11T14:23:56.587Z,15.23
2018-01-11T14:26:25.467Z,15.70
2018-01-11T14:28:54.444Z,16.57
2018-01-11T14:31:23.765Z,15.67
2018-01-11T14:33:53.166Z,15.80
2018-01-11T14:36:21.428Z,16.80
2018-01-11T14:38:50.509Z,15.10
2018-01-11T14:41:19.964Z,14.57
2018-01-11T14:43:48.323Z,14.60
2018-01-11T14:46:17.104Z,16.80
2018-01-11T14:48:47.078Z,16.33
2018-01-11T14:51:15.743Z,17.60
2018-01-11T14:53:44.726Z,16.60
2018-01-11T14:56:13.665Z,17.30
2018-01-11T14:58:42.683Z,18.50
2018-01-11T15:01:11.878Z,17.40
2018-01-11T15:03:40.417Z,17.53
2018-01-11T15:06:10.415Z,18.10
2018-01-11T15:08:39.218Z,17.20
2018-01-11T15:11:08.998Z,16.30
2018-01-11T15:13:37.873Z,18.27
2018-01-11T15:16:07.924Z,18.20
2018-01-11T15:18:36.846Z,19.00
2018-01-11T15:21:05.775Z,17.87
2018-01-11T15:23:34.502Z,18.43
2018-01-11T15:26:03.492Z,17.53
2018-01-11T15:28:33.818Z,17.60
2018-01-11T15:31:03.927Z,18.97
2018-01-11T15:33:32.546Z,19.13
2018-01-11T15:51:24.465Z,22.17
2018-01-11T15:53:53.079Z,21.27
2018-01-11T15:56:21.707Z,24.92
2018-01-11T15:58:50.703Z,21.93
2018-01-11T16:01:20.396Z,20.97
2018-01-11T16:03:49.391Z,21.10
2018-01-11T16:06:18.486Z,19.10
2018-01-11T16:08:47.923Z,18.77
2018-01-11T16:11:16.720Z,20.33
2018-01-11T16:13:45.443Z,25.13
2018-01-11T16:16:13.754Z,25.13
2018-01-11T16:18:44.506Z,19.53
2018-01-11T16:21:13.437Z,21.00
2018-01-11T16:23:42.119Z,22.90
2018-01-11T16:26:11.098Z,21.23
2018-01-11T16:28:39.836Z,21.70
2018-01-11T16:31:09.283Z,18.90
2018-01-11T16:33:38.185Z,21.07
2018-01-11T16:36:07.998Z,20.90
2018-01-11T16:38:37.547Z,23.27
2018-01-11T16:41:05.812Z,20.87
2018-01-11T16:43:34.514Z,23.87
2018-01-11T16:46:03.780Z,22.43
2018-01-11T16:48:32.740Z,22.70
2018-01-11T16:51:01.462Z,22.10
2018-01-11T16:53:31.142Z,23.80
2018-01-11T16:55:59.338Z,26.03
2018-01-11T16:58:28.388Z,23.43
2018-01-11T17:00:57.931Z,22.93
2018-01-11T17:03:26.913Z,24.20
2018-01-11T17:05:55.746Z,25.73
2018-01-11T17:08:25.182Z,24.43
2018-01-11T17:10:54.301Z,24.37
2018-01-11T17:13:23.923Z,22.27
2018-01-11T17:15:52.458Z,24.27
2018-01-11T17:18:21.924Z,24.80
2018-01-11T17:20:50.473Z,27.63
2018-01-11T17:23:18.966Z,33.17
2018-01-11T17:25:48.411Z,31.37
2018-01-11T17:28:16.861Z,24.67
2018-01-11T17:30:46.004Z,24.87
2018-01-11T17:33:15.089Z,24.80
2018-01-11T17:35:43.198Z,24.30
2018-01-11T17:38:11.990Z,24.63
2018-01-11T17:40:41.490Z,21.77
2018-01-11T17:43:12.395Z,20.60
2018-01-11T17:45:41.061Z,22.20
2018-01-11T17:48:10.080Z,21.70
2018-01-11T17:50:39.017Z,22.33
2018-01-11T17:53:08.011Z,21.33
2018-01-11T17:55:37.134Z,24.23
2018-01-11T17:58:06.946Z,26.07
2018-01-11T18:00:36.091Z,25.40
2018-01-11T18:03:04.944Z,28.60
2018-01-11T18:05:33.405Z,25.37
2018-01-11T18:08:02.292Z,23.97
2018-01-11T18:10:31.231Z,26.17
2018-01-11T18:13:00.258Z,25.35
2018-01-11T18:15:29.638Z,24.12
2018-01-11T18:17:57.971Z,27.20
2018-01-11T18:20:26.925Z,27.23
2018-01-11T18:22:55.601Z,28.17
2018-01-11T18:25:23.814Z,28.23
2018-01-11T18:27:53.728Z,28.40
2018-01-11T18:30:23.910Z,26.50
2018-01-11T18:32:52.548Z,29.23
2018-01-11T18:35:23.107Z,24.73
2018-01-11T18:37:53.185Z,26.25
2018-01-11T18:40:21.389Z,31.65
2018-01-11T18:42:50.660Z,29.52
2018-01-11T18:45:19.423Z,29.15
2018-01-11T18:47:48.123Z,32.17
2018-01-11T18:50:16.975Z,31.98
2018-01-11T18:52:45.994Z,32.90
2018-01-11T18:55:15.406Z,34.65
2018-01-11T18:57:43.714Z,31.37
2018-01-11T19:00:14.096Z,31.30
2018-01-11T19:02:42.296Z,34.20
2018-01-11T19:05:10.942Z,30.25
2018-01-11T19:07:40.488Z,32.42
2018-01-11T19:10:10.553Z,34.13
2018-01-11T19:12:39.563Z,26.08
2018-01-11T19:15:08.050Z,22.65
2018-01-11T19:17:37.395Z,30.02
2018-01-11T19:20:07.686Z,29.90
2018-01-11T19:22:36.699Z,30.02
2018-01-11T19:25:06.295Z,28.65
2018-01-11T19:27:35.250Z,31.05
2018-01-11T19:30:03.961Z,26.27
2018-01-11T19:32:32.855Z,28.98
2018-01-11T19:35:02.324Z,27.92
2018-01-11T19:37:31.272Z,27.70
2018-01-11T19:39:59.930Z,28.50
2018-01-11T19:42:28.469Z,28.42
2018-01-11T19:44:56.718Z,23.55
2018-01-11T19:47:25.739Z,21.48
2018-01-11T19:49:55.252Z,25.55
2018-01-11T19:52:23.881Z,28.73
2018-01-11T19:54:53.851Z,27.05
2018-01-11T20:12:46.044Z,26.42
2018-01-11T20:15:15.363Z,25.40
2018-01-11T20:17:44.284Z,25.27
2018-01-11T20:20:14.312Z,22.20
2018-01-11T20:22:43.445Z,25.48
2018-01-11T20:25:12.404Z,30.65
2018-01-11T20:27:41.154Z,28.55
2018-01-11T20:30:09.781Z,30.62
2018-01-11T20:32:39.247Z,32.00
2018-01-11T20:35:07.428Z,30.48
2018-01-11T20:37:37.121Z,25.10
2018-01-11T20:40:05.811Z,26.02
2018-01-11T20:42:34.460Z,22.75
2018-01-11T20:45:03.306Z,22.62
2018-01-11T20:47:31.848Z,24.20
2018-01-11T20:50:00.541Z,22.48
2018-01-11T20:52:29.142Z,24.02
2018-01-11T20:54:59.050Z,25.05
2018-01-11T20:57:28.616Z,24.30
2018-01-11T20:59:57.653Z,25.00
2018-01-11T21:02:27.024Z,23.50
2018-01-11T21:04:55.925Z,23.87
2018-01-11T21:07:24.538Z,24.45
2018-01-11T21:09:53.600Z,26.10
2018-01-11T21:12:22.177Z,22.20
2018-01-11T21:14:50.784Z,21.00
2018-01-11T21:17:19.144Z,20.37
2018-01-11T21:19:48.089Z,25.00
2018-01-11T21:22:17.691Z,24.23
2018-01-11T21:24:46.069Z,23.23
2018-01-11T21:27:15.381Z,23.35
2018-01-11T21:29:43.944Z,24.45
2018-01-11T21:32:12.368Z,22.87
2018-01-11T21:34:42.110Z,22.50
2018-01-11T21:37:10.504Z,20.95
2018-01-11T21:39:39.220Z,20.43
2018-01-11T21:42:07.456Z,21.40
2018-01-11T21:44:35.898Z,21.10
2018-01-11T21:47:03.685Z,21.55
2018-01-11T21:49:32.043Z,21.45
2018-01-11T21:52:00.699Z,21.40
2018-01-11T21:54:30.035Z,22.15
2018-01-11T21:56:59.478Z,22.13
2018-01-11T21:59:27.894Z,23.40
2018-01-11T22:01:58.205Z,20.23
2018-01-11T22:04:27.421Z,21.48
2018-01-11T22:06:56.543Z,21.33
2018-01-11T22:09:25.065Z,19.37
2018-01-11T22:11:54.593Z,21.40
2018-01-11T22:14:23.266Z,22.98
2018-01-11T22:16:51.987Z,20.98
2018-01-11T22:19:20.240Z,21.92
2018-01-11T22:21:49.661Z,19.27
2018-01-11T22:24:18.516Z,19.80
2018-01-11T22:26:47.233Z,19.17
2018-01-11T22:29:15.725Z,20.77
2018-01-11T22:31:44.260Z,20.30
2018-01-11T22:34:13.330Z,19.50
2018-01-11T22:36:41.548Z,22.00
2018-01-11T22:39:10.607Z,17.83
2018-01-11T22:41:39.522Z,20.70
2018-01-11T22:44:09.191Z,20.50
2018-01-11T22:46:38.410Z,19.67
2018-01-11T22:49:07.106Z,19.92
2018-01-11T22:51:36.220Z,18.85
2018-01-11T22:54:05.093Z,18.45
2018-01-11T22:56:34.797Z,18.90
2018-01-11T22:59:03.670Z,17.37
2018-01-11T23:01:32.376Z,19.33
2018-01-11T23:04:00.921Z,18.42
2018-01-11T23:06:29.121Z,17.85
2018-01-11T23:08:58.173Z,19.10
2018-01-11T23:11:26.935Z,18.42
2018-01-11T23:13:55.836Z,18.37
2018-01-11T23:16:24.604Z,18.90
2018-01-11T23:18:53.772Z,17.23
2018-01-11T23:21:22.455Z,16.58
2018-01-11T23:23:51.624Z,16.48
2018-01-11T23:26:20.454Z,18.42
2018-01-11T23:28:49.492Z,18.52
2018-01-11T23:31:18.070Z,16.57
2018-01-11T23:33:47.130Z,18.12
2018-01-11T23:36:16.116Z,16.77
2018-01-11T23:38:45.312Z,16.65
2018-01-11T23:41:13.875Z,14.10
2018-01-11T23:43:42.086Z,16.83
2018-01-11T23:46:10.334Z,15.93
2018-01-11T23:48:38.648Z,18.58
2018-01-11T23:51:06.772Z,15.98
2018-01-11T23:53:35.118Z,18.17
2018-01-11T23:56:04.726Z,16.70
2018-01-11T23:58:33.464Z,16.45
